Time;durP1;ratioP1;P1;durP2;ratioP2;P2;SDS_P1;SDS_P2;PMS_P1;PMS_P2;Temp;Humidity;BMP_temperature;BMP_pressure;BME280_temperature;BME280_humidity;BME280_pressure;Samples;Min_cycle;Max_cycle;Signal;HPM_P1;HPM_P2
2021/05/31 00:00:38;;;;;;;35.22;15.48;;;;;;;12.28;82.60;102738.94;5040864;28;20056;-78
2021/05/31 00:03:06;;;;;;;42.40;16.05;;;;;;;12.26;82.55;102740.75;5035142;28;20446;-77
2021/05/31 00:05:34;;;;;;;36.47;16.13;;;;;;;12.26;82.54;102735.41;5036585;28;20308;-78
2021/05/31 00:08:02;;;;;;;35.60;13.98;;;;;;;12.24;82.33;102737.22;5034373;28;20079;-79
2021/05/31 00:10:30;;;;;;;33.22;16.10;;;;;;;12.15;82.61;102735.47;5037317;28;20056;-79
2021/05/31 00:12:58;;;;;;;37.10;16.23;;;;;;;12.18;82.45;102737.25;5036096;28;20052;-78
2021/05/31 00:15:28;;;;;;;35.03;14.95;;;;;;;12.13;82.57;102734.59;5040762;28;20060;-78
2021/05/31 00:17:56;;;;;;;38.08;14.90;;;;;;;12.08;82.61;102735.56;5036781;28;20148;-78
2021/05/31 00:20:23;;;;;;;41.40;16.40;;;;;;;12.05;82.40;102735.56;5039701;28;20065;-78
2021/05/31 00:22:52;;;;;;;36.47;15.93;;;;;;;12.00;82.57;102729.38;5036708;28;20061;-79
2021/05/31 00:25:19;;;;;;;35.30;14.25;;;;;;;11.95;82.84;102738.34;5039732;28;20482;-79
2021/05/31 00:27:47;;;;;;;31.67;14.02;;;;;;;11.92;82.72;102722.31;5038616;28;20057;-79
2021/05/31 00:30:16;;;;;;;41.70;16.38;;;;;;;11.86;83.41;102721.41;5037340;28;20330;-78
2021/05/31 00:32:43;;;;;;;31.45;14.88;;;;;;;11.89;83.20;102724.97;5038157;28;20064;-80
2021/05/31 00:35:11;;;;;;;31.92;14.38;;;;;;;11.86;82.88;102724.09;5017587;28;20064;-79
2021/05/31 00:37:38;;;;;;;36.38;15.55;;;;;;;11.85;83.06;102719.63;5038360;28;20099;-79
2021/05/31 00:40:09;;;;;;;33.75;15.82;;;;;;;11.78;82.83;102716.13;5043178;28;20065;-78
2021/05/31 00:42:36;;;;;;;40.90;15.65;;;;;;;11.78;83.13;102716.13;5039019;28;20384;-79
2021/05/31 00:45:05;;;;;;;33.15;16.35;;;;;;;11.73;83.43;102713.50;5027638;28;20578;-78
2021/05/31 00:47:33;;;;;;;34.92;15.13;;;;;;;11.73;83.19;102712.59;5047775;28;20152;-79
2021/05/31 00:50:01;;;;;;;34.30;15.73;;;;;;;11.68;83.29;102715.31;5045764;28;20056;-78
2021/05/31 00:52:29;;;;;;;36.30;15.80;;;;;;;11.67;83.04;102718.00;5046128;28;20068;-79
2021/05/31 00:54:56;;;;;;;30.38;14.65;;;;;;;11.62;83.14;102714.47;5043598;28;20122;-79
2021/05/31 00:57:24;;;;;;;32.88;14.90;;;;;;;11.60;83.47;102717.16;5044410;28;20064;-80
2021/05/31 00:59:52;;;;;;;32.90;15.75;;;;;;;11.57;83.57;102715.38;5040720;28;20056;-78
2021/05/31 01:02:19;;;;;;;32.10;15.35;;;;;;;11.54;83.31;102711.81;5044369;28;20537;-80
2021/05/31 01:04:46;;;;;;;37.00;16.52;;;;;;;11.53;83.39;102720.75;5039175;28;20104;-77
2021/05/31 01:07:19;;;;;;;37.90;16.27;;;;;;;11.49;83.72;102722.56;5045942;28;20068;-80
2021/05/31 01:09:58;;;;;;;37.13;15.88;;;;;;;11.43;83.41;102719.91;5039888;28;20069;-78
2021/05/31 01:12:32;;;;;;;32.20;14.13;;;;;;;11.41;83.56;102716.38;5028608;28;20067;-79
2021/05/31 01:15:07;;;;;;;36.28;15.43;;;;;;;11.41;83.58;102721.72;5040705;28;20506;-78
2021/05/31 01:17:47;;;;;;;35.38;15.10;;;;;;;11.36;83.61;102720.84;5045000;28;20065;-77
2021/05/31 01:20:23;;;;;;;33.38;14.82;;;;;;;11.28;83.84;102720.88;5046602;28;20250;-79
2021/05/31 01:22:52;;;;;;;27.20;14.63;;;;;;;11.26;83.78;102722.69;5047904;28;20065;-80
2021/05/31 01:25:33;;;;;;;33.83;15.90;;;;;;;11.26;83.95;102716.47;5047338;28;20068;-78
2021/05/31 01:28:25;;;;;;;30.88;13.95;;;;;;;11.21;84.14;102720.03;5047353;28;20132;-79
2021/05/31 01:30:56;;;;;;;35.67;14.73;;;;;;;11.19;84.05;102715.59;5028869;28;20053;-79
2021/05/31 01:33:30;;;;;;;31.27;14.80;;;;;;;11.16;83.81;102715.59;5041985;28;20065;-79
2021/05/31 01:36:00;;;;;;;36.03;15.75;;;;;;;11.12;83.94;102712.06;5044216;28;20121;-79
2021/05/31 01:38:31;;;;;;;46.95;15.30;;;;;;;11.10;83.95;102716.53;5044906;28;20317;-79
2021/05/31 01:41:00;;;;;;;37.40;15.75;;;;;;;11.08;83.97;102715.63;5026475;28;20065;-79
2021/05/31 01:43:28;;;;;;;32.58;15.15;;;;;;;11.04;84.16;102716.56;5041784;28;20060;-79
2021/05/31 01:46:00;;;;;;;31.08;14.25;;;;;;;11.01;83.85;102708.53;5041154;28;20068;-80
2021/05/31 01:48:29;;;;;;;31.10;14.23;;;;;;;10.99;83.98;102713.00;5043149;28;20130;-79
2021/05/31 01:50:58;;;;;;;31.27;15.00;;;;;;;10.93;84.22;102707.69;5044187;28;20332;-79
2021/05/31 01:53:27;;;;;;;35.33;14.45;;;;;;;10.89;83.99;102708.59;5030167;28;20322;-79
2021/05/31 01:55:56;;;;;;;32.47;14.05;;;;;;;10.87;84.21;102710.38;5023826;28;20065;-79
2021/05/31 01:58:24;;;;;;;33.15;14.30;;;;;;;10.88;84.44;102709.47;5045924;28;20069;-79
2021/05/31 02:00:52;;;;;;;33.55;14.98;;;;;;;10.84;84.65;102706.84;5039350;28;20087;-78
2021/05/31 02:03:21;;;;;;;36.50;15.35;;;;;;;10.81;84.37;102708.59;5042050;28;20057;-79
2021/05/31 02:05:48;;;;;;;34.28;16.50;;;;;;;10.80;84.52;102705.06;5041090;28;20045;-80
2021/05/31 02:08:17;;;;;;;34.78;15.75;;;;;;;10.80;84.49;102706.84;5042264;28;20071;-79
2021/05/31 02:10:46;;;;;;;32.60;13.98;;;;;;;10.79;84.50;102699.72;5026165;28;20065;-78
2021/05/31 02:13:15;;;;;;;33.97;15.35;;;;;;;10.78;84.54;102704.19;5034884;28;20275;-78
2021/05/31 02:15:55;;;;;;;31.55;15.15;;;;;;;10.71;84.65;102701.53;5043337;28;20152;-78
2021/05/31 02:18:27;;;;;;;33.70;15.05;;;;;;;10.71;84.56;102697.09;5035424;28;20096;-79
2021/05/31 02:21:00;;;;;;;32.10;13.90;;;;;;;10.68;84.63;102694.44;5042320;28;20358;-78
2021/05/31 02:23:31;;;;;;;36.58;15.65;;;;;;;10.66;84.86;102696.22;5036035;28;20061;-78
2021/05/31 02:26:00;;;;;;;41.92;14.98;;;;;;;10.64;84.64;102692.63;5044214;28;20053;-80
2021/05/31 02:28:28;;;;;;;37.95;16.27;;;;;;;10.62;85.07;102692.66;5041598;28;21188;-80
2021/05/31 02:30:55;;;;;;;32.50;14.55;;;;;;;10.62;85.15;102694.44;5047823;28;20439;-78
2021/05/31 02:33:25;;;;;;;35.25;16.00;;;;;;;10.60;85.08;102689.09;5037807;28;20399;-79
2021/05/31 02:35:53;;;;;;;37.05;18.48;;;;;;;10.60;85.16;102693.56;5040002;28;20144;-79
2021/05/31 02:38:20;;;;;;;29.73;15.77;;;;;;;10.57;85.54;102698.91;5021247;28;20065;-79
2021/05/31 02:40:47;;;;;;;33.78;16.38;;;;;;;10.57;85.08;102696.22;5034649;28;20138;-78
2021/05/31 02:43:15;;;;;;;38.83;16.65;;;;;;;10.52;85.49;102700.69;5038206;28;20063;-80
2021/05/31 02:45:42;;;;;;;40.80;18.10;;;;;;;10.49;85.76;102693.59;5037925;28;20494;-79
2021/05/31 02:48:09;;;;;;;39.40;16.77;;;;;;;10.50;86.03;102705.16;5038230;28;20151;-79
2021/05/31 02:50:38;;;;;;;38.92;15.90;;;;;;;10.49;85.86;102698.03;5038725;28;20052;-80
2021/05/31 02:53:07;;;;;;;36.90;16.40;;;;;;;10.43;86.11;102693.59;5036975;28;20395;-78
2021/05/31 02:55:36;;;;;;;35.97;15.98;;;;;;;10.43;86.38;102704.28;5040548;28;20454;-79
2021/05/31 02:58:04;;;;;;;38.45;17.17;;;;;;;10.45;86.42;102698.06;5034962;28;20256;-79
2021/05/31 03:00:33;;;;;;;40.47;18.40;;;;;;;10.47;86.56;102700.69;5041789;28;20064;-79
2021/05/31 03:03:01;;;;;;;39.22;17.05;;;;;;;10.37;86.77;102694.50;5037094;28;20064;-79
2021/05/31 03:05:29;;;;;;;42.80;17.20;;;;;;;10.38;86.74;102695.38;5043705;28;20064;-79
2021/05/31 03:07:59;;;;;;;35.08;16.02;;;;;;;10.35;86.95;102698.97;5025718;28;20060;-79
2021/05/31 03:10:28;;;;;;;39.95;16.50;;;;;;;10.37;86.87;102689.16;5035000;28;20138;-79
2021/05/31 03:12:56;;;;;;;44.20;18.40;;;;;;;10.36;86.93;102695.38;5038730;28;20088;-80
2021/05/31 03:15:24;;;;;;;46.38;17.58;;;;;;;10.33;86.89;102684.72;5019800;28;20099;-79
2021/05/31 03:17:51;;;;;;;41.42;18.27;;;;;;;10.34;86.95;102691.84;5038729;28;20069;-79
2021/05/31 03:20:24;;;;;;;40.95;17.52;;;;;;;10.35;87.08;102696.28;5036782;28;20060;-80
2021/05/31 03:22:51;;;;;;;44.00;18.95;;;;;;;10.33;87.03;102687.38;5038304;28;20135;-78
2021/05/31 03:25:20;;;;;;;41.65;19.05;;;;;;;10.32;87.31;102685.63;5034474;28;20390;-78
2021/05/31 03:27:48;;;;;;;41.17;17.15;;;;;;;10.30;87.35;102690.03;5039192;28;20072;-79
2021/05/31 03:30:16;;;;;;;39.88;17.73;;;;;;;10.28;87.36;102690.03;5035015;28;20087;-79
2021/05/31 03:32:43;;;;;;;45.92;18.75;;;;;;;10.28;87.54;102694.47;5039158;28;20365;-79
2021/05/31 03:35:13;;;;;;;42.80;19.63;;;;;;;10.23;87.93;102693.59;5017025;28;20329;-79
2021/05/31 03:37:41;;;;;;;44.80;18.52;;;;;;;10.23;87.75;102694.50;5040338;28;20065;-79
2021/05/31 03:40:10;;;;;;;45.40;18.95;;;;;;;10.22;87.55;102683.81;5035703;28;20497;-79
2021/05/31 03:42:39;;;;;;;44.22;20.08;;;;;;;10.26;87.60;102686.47;5040034;28;20067;-80
2021/05/31 03:45:09;;;;;;;45.47;19.73;;;;;;;10.17;88.39;102677.59;5034576;28;20072;-80
2021/05/31 03:47:38;;;;;;;43.40;18.83;;;;;;;10.21;87.89;102680.25;5022494;28;20061;-79
2021/05/31 03:50:07;;;;;;;51.03;21.23;;;;;;;10.18;88.12;102676.69;5036007;28;20065;-79
2021/05/31 03:52:34;;;;;;;43.25;18.50;;;;;;;10.15;88.11;102682.94;5037030;28;20054;-79
2021/05/31 03:55:03;;;;;;;51.40;21.00;;;;;;;10.19;88.11;102681.16;5037811;28;20380;-79
2021/05/31 03:57:31;;;;;;;43.55;18.50;;;;;;;10.17;88.41;102682.94;5025333;28;20480;-78
2021/05/31 03:59:59;;;;;;;47.50;18.98;;;;;;;10.16;88.36;102681.16;5023989;28;20060;-79
2021/05/31 04:02:28;;;;;;;45.25;19.88;;;;;;;10.17;88.49;102685.59;5035472;28;20061;-80
2021/05/31 04:04:55;;;;;;;49.92;19.73;;;;;;;10.22;88.14;102689.16;5039663;28;20064;-80
2021/05/31 04:12:52;;;;;;;50.53;20.13;;;;;;;10.17;88.60;102683.81;5041301;28;20052;-80
2021/05/31 04:15:21;;;;;;;50.42;19.75;;;;;;;10.23;88.53;102690.91;5043392;28;20414;-81
2021/05/31 04:17:49;;;;;;;48.92;20.67;;;;;;;10.23;88.33;102693.59;5037302;28;20064;-80
2021/05/31 04:20:17;;;;;;;48.53;19.52;;;;;;;10.23;88.60;102690.91;5037491;28;20106;-81
2021/05/31 04:22:45;;;;;;;49.70;21.13;;;;;;;10.23;88.51;102697.16;5037047;28;20093;-74
2021/05/31 04:25:12;;;;;;;50.22;21.25;;;;;;;10.27;88.94;102693.59;5037752;28;20061;-74
2021/05/31 04:27:40;;;;;;;55.22;21.80;;;;;;;10.29;88.67;102691.78;5034438;28;20067;-74
2021/05/31 04:30:09;;;;;;;52.55;22.80;;;;;;;10.34;88.68;102682.94;5037111;28;21331;-74
2021/05/31 04:32:38;;;;;;;50.83;21.17;;;;;;;10.38;88.62;102690.91;5028739;28;20061;-75
2021/05/31 04:35:06;;;;;;;56.55;22.05;;;;;;;10.44;88.55;102685.59;5036883;28;20057;-75
2021/05/31 04:37:34;;;;;;;50.42;22.25;;;;;;;10.50;88.15;102686.47;5032614;28;20116;-74
2021/05/31 04:40:04;;;;;;;56.05;22.38;;;;;;;10.59;87.93;102681.09;5039803;28;20173;-74
2021/05/31 04:42:31;;;;;;;55.38;23.42;;;;;;;10.70;87.46;102683.75;5033919;28;20147;-73
2021/05/31 04:44:59;;;;;;;44.83;19.45;;;;;;;10.80;87.11;102681.03;5038326;28;20053;-74
2021/05/31 04:47:26;;;;;;;53.42;21.40;;;;;;;10.91;86.81;102680.09;5031537;28;20061;-74
2021/05/31 04:49:55;;;;;;;52.22;21.80;;;;;;;11.02;86.61;102683.63;5036594;28;20065;-74
2021/05/31 04:52:22;;;;;;;54.38;22.25;;;;;;;11.14;86.15;102674.66;5036283;28;20064;-73
2021/05/31 04:54:50;;;;;;;49.67;21.27;;;;;;;11.22;85.55;102680.84;5037597;28;20065;-74
2021/05/31 04:57:18;;;;;;;55.35;22.33;;;;;;;11.39;85.23;102680.72;5043369;28;20060;-73
2021/05/31 04:59:45;;;;;;;50.38;22.60;;;;;;;11.56;84.94;102683.28;5033946;28;20106;-74
2021/05/31 05:02:13;;;;;;;55.42;23.35;;;;;;;11.71;83.76;102677.88;5040991;28;20065;-74
2021/05/31 05:04:42;;;;;;;54.53;21.65;;;;;;;11.94;83.36;102684.84;5036013;28;20083;-75
2021/05/31 05:07:12;;;;;;;52.58;21.80;;;;;;;11.93;82.91;102673.22;5039657;28;20053;-74
2021/05/31 05:09:40;;;;;;;51.25;23.15;;;;;;;12.24;82.50;102678.31;5038113;28;20083;-74
2021/05/31 05:12:08;;;;;;;45.60;22.23;;;;;;;12.43;81.42;102683.47;5036703;28;20061;-74
2021/05/31 05:14:36;;;;;;;50.13;21.92;;;;;;;12.59;80.71;102674.38;5040727;28;20063;-74
2021/05/31 05:17:03;;;;;;;53.78;22.73;;;;;;;12.75;80.01;102671.50;5037030;28;20057;-74
2021/05/31 05:19:31;;;;;;;50.40;21.08;;;;;;;13.00;78.89;102678.34;5038089;28;20506;-74
2021/05/31 05:21:58;;;;;;;51.80;19.45;;;;;;;13.19;78.49;102670.06;5040728;28;20061;-82
2021/05/31 05:24:29;;;;;;;45.60;20.27;;;;;;;13.38;77.77;102666.25;5039274;28;20068;-82
2021/05/31 05:26:56;;;;;;;51.15;20.88;;;;;;;13.68;77.24;102673.84;5029171;28;20068;-81
2021/05/31 05:29:24;;;;;;;50.50;21.60;;;;;;;13.81;76.57;102670.06;5040356;28;20073;-81
2021/05/31 05:31:52;;;;;;;47.42;21.05;;;;;;;13.78;75.29;102664.72;5036550;28;20065;-81
2021/05/31 05:34:19;;;;;;;45.97;20.77;;;;;;;14.18;75.47;102662.25;5022991;28;20063;-81
2021/05/31 05:36:50;;;;;;;47.15;20.67;;;;;;;14.29;74.50;102662.03;5048422;28;20095;-81
2021/05/31 05:39:47;;;;;;;52.25;21.23;;;;;;;14.37;73.69;102656.53;5027086;28;20065;-81
2021/05/31 05:42:26;;;;;;;47.17;21.98;;;;;;;14.50;72.58;102660.72;5043278;28;20065;-82
2021/05/31 05:47:43;;;;;;;55.67;21.58;;;;;;;14.95;71.80;102657.19;5028977;28;20049;-81
2021/05/31 05:50:17;;;;;;;49.70;21.20;;;;;;;14.89;71.43;102649.25;5025329;28;20103;-82
2021/05/31 05:52:45;;;;;;;51.80;22.10;;;;;;;14.98;70.83;102650.84;5027647;28;21366;-82
2021/05/31 05:55:16;;;;;;;50.95;21.60;;;;;;;15.36;70.46;102646.38;5027542;28;21072;-82
2021/05/31 05:57:45;;;;;;;49.15;21.00;;;;;;;15.27;69.68;102650.19;5046330;28;20065;-83
2021/05/31 06:00:19;;;;;;;44.55;20.15;;;;;;;15.49;68.74;102640.69;5047306;28;20096;-82
2021/05/31 06:02:47;;;;;;;41.47;19.27;;;;;;;15.71;68.14;102650.03;5040565;28;20065;-82
2021/05/31 06:05:15;;;;;;;49.63;21.85;;;;;;;15.83;67.71;102641.69;5041871;28;20350;-83
2021/05/31 06:07:43;;;;;;;43.40;20.00;;;;;;;16.02;67.40;102648.38;5009607;28;20065;-74
2021/05/31 06:10:12;;;;;;;43.78;19.52;;;;;;;16.20;66.62;102648.81;5039887;28;20061;-75
2021/05/31 06:12:40;;;;;;;50.28;22.00;;;;;;;16.27;66.49;102647.69;5032874;28;20309;-76
2021/05/31 06:15:10;;;;;;;48.60;20.83;;;;;;;16.30;66.07;102642.25;5038201;28;20057;-74
2021/05/31 06:17:38;;;;;;;46.67;19.58;;;;;;;16.21;65.50;102646.06;5037798;28;20061;-74
2021/05/31 06:20:06;;;;;;;46.17;21.10;;;;;;;16.69;65.41;102633.94;5035649;28;20071;-73
2021/05/31 06:22:39;;;;;;;44.72;19.13;;;;;;;17.02;64.04;102639.28;5035880;28;20407;-74
2021/05/31 06:25:08;;;;;;;38.97;19.40;;;;;;;16.85;64.32;102634.41;5032095;28;20060;-73
2021/05/31 06:27:35;;;;;;;41.25;19.90;;;;;;;17.05;62.84;102636.50;5034732;28;20067;-80
2021/05/31 06:30:06;;;;;;;37.45;17.63;;;;;;;17.45;62.10;102635.25;5036952;28;20061;-80
2021/05/31 06:32:34;;;;;;;41.80;18.60;;;;;;;17.48;61.20;102635.13;5004168;28;20084;-79
2021/05/31 06:35:02;;;;;;;44.20;19.38;;;;;;;17.53;61.57;102635.84;5040505;28;20318;-79
2021/05/31 06:37:37;;;;;;;41.28;19.15;;;;;;;17.64;61.31;102645.41;5032736;28;20066;-78
2021/05/31 06:40:07;;;;;;;43.92;19.25;;;;;;;18.05;59.34;102632.38;5038851;28;20301;-81
2021/05/31 06:42:36;;;;;;;37.95;18.00;;;;;;;17.75;60.19;102629.75;5016851;28;20087;-80
2021/05/31 06:45:07;;;;;;;40.40;17.92;;;;;;;17.92;59.22;102634.59;5024237;28;20063;-80
2021/05/31 06:47:39;;;;;;;38.00;17.50;;;;;;;18.15;58.30;102631.09;5030078;28;20072;-79
2021/05/31 06:50:07;;;;;;;32.20;16.02;;;;;;;18.65;57.15;102628.34;5035664;28;20065;-78
2021/05/31 06:52:36;;;;;;;35.45;17.55;;;;;;;18.69;57.48;102622.81;5031528;28;20236;-80
2021/05/31 06:55:04;;;;;;;37.67;17.85;;;;;;;18.71;56.88;102621.84;5019356;28;20118;-79
2021/05/31 06:57:32;;;;;;;30.20;16.13;;;;;;;19.26;55.89;102618.81;5034695;28;21384;-79
2021/05/31 06:59:59;;;;;;;37.90;18.55;;;;;;;19.47;55.35;102614.31;5035723;28;20092;-80
2021/05/31 07:02:27;;;;;;;38.17;16.80;;;;;;;19.51;55.41;102617.78;5036737;28;20068;-79
2021/05/31 07:04:56;;;;;;;34.00;14.65;;;;;;;19.24;54.40;102615.28;5034277;28;20052;-77
2021/05/31 07:07:23;;;;;;;34.97;17.65;;;;;;;19.29;55.17;102613.28;5035781;28;20061;-77
2021/05/31 07:09:50;;;;;;;36.22;16.33;;;;;;;19.73;53.72;102615.06;5032555;28;20119;-77
2021/05/31 07:12:18;;;;;;;33.22;16.08;;;;;;;19.45;52.88;102613.50;5033260;28;20455;-77
2021/05/31 07:14:47;;;;;;;33.60;16.55;;;;;;;19.63;52.43;102617.28;5031908;28;20061;-78
2021/05/31 07:17:16;;;;;;;35.47;17.17;;;;;;;19.50;52.61;102614.22;5033918;28;20076;-77
2021/05/31 07:19:44;;;;;;;31.67;16.33;;;;;;;19.94;51.56;102619.59;5032838;28;20144;-78
2021/05/31 07:22:15;;;;;;;36.17;17.45;;;;;;;19.95;51.97;102618.66;5032353;28;20269;-75
2021/05/31 07:24:43;;;;;;;32.20;16.10;;;;;;;19.99;51.49;102613.97;5031722;28;20065;-75
2021/05/31 07:27:11;;;;;;;32.60;15.40;;;;;;;19.69;52.04;102613.44;5036967;28;20060;-75
2021/05/31 07:29:39;;;;;;;33.42;15.93;;;;;;;19.83;51.20;102607.47;5033883;28;20057;-75
2021/05/31 07:32:07;;;;;;;33.22;15.38;;;;;;;19.90;50.41;102615.25;5037616;28;20072;-77
2021/05/31 07:34:35;;;;;;;31.27;16.00;;;;;;;19.99;51.61;102605.84;5034640;28;20052;-76
2021/05/31 07:37:03;;;;;;;30.10;15.00;;;;;;;20.37;50.35;102600.53;5022738;28;20410;-77
2021/05/31 07:39:32;;;;;;;31.63;15.90;;;;;;;20.47;50.25;102601.88;5037949;28;20595;-76
2021/05/31 07:41:59;;;;;;;33.35;15.73;;;;;;;20.54;49.80;102602.47;5042008;28;20052;-75
2021/05/31 07:44:27;;;;;;;31.17;15.60;;;;;;;20.48;49.54;102598.22;5020420;28;20057;-75
2021/05/31 07:46:54;;;;;;;28.60;15.15;;;;;;;20.57;48.83;102594.19;5036100;28;20061;-76
2021/05/31 07:49:21;;;;;;;31.23;16.25;;;;;;;20.88;48.90;102587.34;5036085;28;20102;-75
2021/05/31 07:51:51;;;;;;;29.98;15.10;;;;;;;21.18;48.05;102594.94;5037293;28;20068;-76
2021/05/31 07:54:20;;;;;;;29.55;16.00;;;;;;;20.96;48.97;102592.38;5036371;28;20069;-75
2021/05/31 07:56:49;;;;;;;28.77;14.77;;;;;;;21.21;47.93;102592.94;5035150;28;20116;-74
2021/05/31 07:59:16;;;;;;;29.88;14.93;;;;;;;21.56;47.81;102594.91;5037248;28;20099;-74
2021/05/31 08:01:44;;;;;;;30.95;15.05;;;;;;;21.66;47.22;102598.00;5036969;28;20068;-74
2021/05/31 08:04:11;;;;;;;27.88;15.75;;;;;;;21.61;47.22;102585.56;5035473;28;20061;-74
2021/05/31 08:06:38;;;;;;;28.17;14.40;;;;;;;21.81;45.95;102591.78;5033279;28;20057;-74
2021/05/31 08:09:06;;;;;;;26.77;14.02;;;;;;;22.34;45.55;102588.09;5038696;28;20437;-73
2021/05/31 08:11:33;;;;;;;28.00;15.52;;;;;;;22.13;46.09;102589.22;5032048;28;20069;-73
2021/05/31 08:14:02;;;;;;;27.80;14.70;;;;;;;22.05;45.85;102575.16;5041373;28;20053;-73
2021/05/31 08:16:30;;;;;;;29.08;14.00;;;;;;;22.13;45.98;102584.63;5032508;28;20073;-75
2021/05/31 08:18:58;;;;;;;28.88;13.77;;;;;;;22.46;44.24;102578.38;5038743;28;20056;-74
2021/05/31 08:21:25;;;;;;;27.80;13.32;;;;;;;22.81;44.03;102578.25;5034805;28;20060;-74
2021/05/31 08:23:53;;;;;;;28.50;13.90;;;;;;;22.50;44.28;102579.97;5039417;28;20439;-73
2021/05/31 08:26:20;;;;;;;24.20;12.90;;;;;;;22.63;44.63;102577.47;5034405;28;20061;-74
2021/05/31 08:28:48;;;;;;;25.75;13.27;;;;;;;22.55;44.10;102579.72;5037317;28;20633;-74
2021/05/31 08:31:17;;;;;;;24.75;12.57;;;;;;;22.74;43.91;102571.41;5040623;28;20111;-74
2021/05/31 08:33:44;;;;;;;24.10;12.43;;;;;;;22.41;43.32;102580.47;5036337;28;21465;-74
2021/05/31 08:36:11;;;;;;;24.98;12.63;;;;;;;23.19;42.89;102577.03;5039876;28;20418;-74
2021/05/31 08:38:39;;;;;;;25.10;13.40;;;;;;;22.59;44.38;102577.69;5039157;28;20347;-72
2021/05/31 08:41:06;;;;;;;25.27;12.80;;;;;;;23.27;42.96;102572.91;5039343;28;20505;-73
2021/05/31 08:43:33;;;;;;;27.65;12.63;;;;;;;23.15;42.96;102578.19;5021150;28;20069;-73
2021/05/31 08:46:01;;;;;;;26.15;11.85;;;;;;;23.15;41.70;102565.47;5037976;28;20056;-73
2021/05/31 08:48:31;;;;;;;23.95;11.07;;;;;;;23.23;41.16;102570.47;5039821;28;20434;-73
2021/05/31 08:50:59;;;;;;;21.27;11.35;;;;;;;23.16;40.75;102575.41;5039611;28;20092;-72
2021/05/31 08:53:26;;;;;;;21.73;11.57;;;;;;;23.72;40.67;102564.81;5039787;28;20060;-72
2021/05/31 08:55:53;;;;;;;19.63;10.20;;;;;;;23.88;39.70;102569.38;5037048;28;20079;-72
2021/05/31 08:58:21;;;;;;;18.15;9.77;;;;;;;23.42;40.22;102562.94;5037269;28;20148;-75
2021/05/31 09:00:49;;;;;;;22.92;10.18;;;;;;;23.39;39.30;102568.56;5042532;28;20060;-74
2021/05/31 09:03:18;;;;;;;25.83;10.98;;;;;;;23.74;39.32;102559.28;5035646;28;20456;-74
2021/05/31 09:05:49;;;;;;;21.45;10.32;;;;;;;23.63;40.18;102570.81;5043570;28;20083;-74
2021/05/31 09:08:17;;;;;;;20.60;10.10;;;;;;;23.78;39.55;102558.97;5034354;28;20083;-76
2021/05/31 09:10:47;;;;;;;21.20;9.30;;;;;;;24.18;37.35;102566.59;5044357;28;20510;-76
2021/05/31 09:13:26;;;;;;;16.48;9.05;;;;;;;23.61;38.53;102564.59;5035917;28;20057;-77
2021/05/31 09:16:04;;;;;;;16.73;9.18;;;;;;;24.26;37.85;102558.78;5042739;28;20064;-77
2021/05/31 09:18:32;;;;;;;14.43;8.80;;;;;;;24.10;38.36;102558.88;5035084;28;20510;-76
2021/05/31 09:21:12;;;;;;;20.58;9.68;;;;;;;24.11;37.83;102543.38;5040076;28;20159;-77
2021/05/31 09:23:40;;;;;;;20.70;9.70;;;;;;;23.87;38.01;102543.94;5038323;28;20072;-76
2021/05/31 09:26:07;;;;;;;16.85;8.90;;;;;;;24.28;37.91;102547.78;5022997;28;20467;-77
2021/05/31 09:28:35;;;;;;;13.85;8.60;;;;;;;24.04;36.86;102548.34;5036915;28;20062;-77
2021/05/31 09:31:13;;;;;;;15.15;8.85;;;;;;;24.42;37.21;102539.59;5035153;28;20134;-76
2021/05/31 09:33:42;;;;;;;16.00;8.57;;;;;;;24.81;36.97;102546.22;5037499;28;20068;-76
2021/05/31 09:36:11;;;;;;;15.02;8.20;;;;;;;24.40;36.45;102528.78;5034350;28;20462;-77
2021/05/31 09:38:48;;;;;;;16.55;8.35;;;;;;;24.79;36.48;102538.13;5017149;28;20068;-76
2021/05/31 09:41:28;;;;;;;15.93;9.32;;;;;;;24.73;36.98;102537.66;5035895;28;20138;-77
2021/05/31 09:43:57;;;;;;;14.73;8.85;;;;;;;24.63;36.46;102537.34;5033545;28;20538;-76
2021/05/31 09:46:39;;;;;;;17.83;9.18;;;;;;;25.05;35.90;102534.63;5033849;28;20060;-77
2021/05/31 09:49:17;;;;;;;15.75;8.85;;;;;;;24.80;36.22;102530.78;5035903;28;20049;-77
2021/05/31 09:51:55;;;;;;;13.38;8.00;;;;;;;24.65;34.59;102529.06;5037288;28;20119;-78
2021/05/31 09:54:31;;;;;;;14.07;7.93;;;;;;;24.41;34.73;102522.34;5034615;28;20115;-77
2021/05/31 09:57:00;;;;;;;15.57;7.90;;;;;;;24.38;33.69;102525.28;5042769;28;20501;-77
2021/05/31 09:59:29;;;;;;;14.55;8.05;;;;;;;24.88;33.78;102522.97;5034533;28;20315;-78
2021/05/31 10:02:00;;;;;;;13.05;8.20;;;;;;;24.79;33.80;102529.94;5040687;28;20073;-78
2021/05/31 10:04:39;;;;;;;14.80;7.57;;;;;;;24.93;34.05;102526.28;5037464;28;20076;-80
2021/05/31 10:07:18;;;;;;;14.70;7.93;;;;;;;25.18;34.07;102530.06;5039792;28;20065;-80
2021/05/31 10:09:47;;;;;;;15.07;8.52;;;;;;;24.87;33.24;102521.22;5037653;28;20060;-79
2021/05/31 10:12:14;;;;;;;12.88;8.05;;;;;;;24.04;33.95;102529.25;5021887;28;20088;-77
2021/05/31 10:14:43;;;;;;;14.40;7.93;;;;;;;24.37;34.50;102519.94;5039331;28;20068;-78
2021/05/31 10:17:12;;;;;;;14.48;8.27;;;;;;;24.90;32.91;102515.56;5037234;28;20867;-79
2021/05/31 10:19:40;;;;;;;14.82;8.05;;;;;;;24.94;33.91;102513.50;5043434;28;20085;-78
2021/05/31 10:22:10;;;;;;;15.65;8.40;;;;;;;24.65;34.70;102504.50;5031597;28;20059;-80
2021/05/31 10:24:39;;;;;;;14.63;8.25;;;;;;;25.25;34.05;102514.16;5042908;28;20357;-79
2021/05/31 10:27:10;;;;;;;16.02;8.93;;;;;;;24.45;33.88;102503.06;5034584;28;20071;-80
2021/05/31 10:29:41;;;;;;;13.95;8.57;;;;;;;24.72;33.88;102508.59;5038156;28;20168;-79
2021/05/31 10:32:09;;;;;;;16.50;9.68;;;;;;;25.00;33.54;102512.22;5012602;28;20060;-78
2021/05/31 10:34:48;;;;;;;16.88;8.75;;;;;;;25.64;33.05;102505.13;5037715;28;20072;-74
2021/05/31 10:37:24;;;;;;;17.85;8.68;;;;;;;25.19;32.41;102509.13;5035331;28;20359;-75
2021/05/31 10:40:06;;;;;;;16.48;8.07;;;;;;;24.80;32.05;102500.78;5035222;28;20406;-73
2021/05/31 10:42:43;;;;;;;13.98;7.07;;;;;;;26.07;31.58;102495.75;5038391;28;20064;-75
2021/05/31 10:45:27;;;;;;;15.15;8.68;;;;;;;25.52;32.87;102487.72;5035393;28;20095;-74
2021/05/31 10:47:56;;;;;;;15.30;8.65;;;;;;;25.70;31.55;102485.53;5035712;28;20072;-74
2021/05/31 10:50:29;;;;;;;17.13;8.85;;;;;;;25.76;31.84;102489.72;5036103;28;20076;-78
2021/05/31 10:52:58;;;;;;;15.52;9.35;;;;;;;25.54;31.64;102485.75;5037743;28;20091;-79
2021/05/31 10:55:27;;;;;;;12.43;7.35;;;;;;;26.31;31.12;102470.31;5035054;28;20053;-78
2021/05/31 10:57:56;;;;;;;14.80;8.27;;;;;;;25.55;31.16;102478.41;5034900;28;20502;-78
2021/05/31 11:00:26;;;;;;;16.92;9.13;;;;;;;25.65;31.89;102478.66;5039593;28;20388;-79
2021/05/31 11:03:05;;;;;;;15.00;8.80;;;;;;;25.63;31.16;102478.75;5036015;28;20064;-82
2021/05/31 11:05:34;;;;;;;12.48;6.57;;;;;;;25.95;29.17;102475.63;5031315;28;20083;-82
2021/05/31 11:08:07;;;;;;;15.77;7.97;;;;;;;26.04;30.91;102466.75;5028787;28;20147;-82
2021/05/31 11:10:37;;;;;;;18.70;9.90;;;;;;;25.52;32.70;102468.59;5030332;28;20053;-81
2021/05/31 11:13:14;;;;;;;17.75;9.40;;;;;;;25.56;33.68;102465.59;5039648;28;20093;-82
2021/05/31 11:15:42;;;;;;;18.38;10.57;;;;;;;25.91;33.13;102469.47;5031695;28;20057;-80
2021/05/31 11:18:21;;;;;;;15.98;9.20;;;;;;;26.65;31.26;102461.38;5040146;28;20067;-82
2021/05/31 11:20:52;;;;;;;12.55;7.43;;;;;;;26.34;29.69;102451.81;5040996;28;20084;-81
2021/05/31 11:23:22;;;;;;;15.00;7.88;;;;;;;26.50;31.88;102459.75;5039819;28;20057;-82
2021/05/31 11:25:50;;;;;;;15.35;8.02;;;;;;;26.50;31.36;102450.69;5042228;28;20097;-82
2021/05/31 11:28:21;;;;;;;16.67;9.00;;;;;;;25.83;32.33;102443.63;5038920;28;20156;-80
2021/05/31 11:30:49;;;;;;;14.73;8.10;;;;;;;26.66;31.80;102440.34;5044700;28;20069;-82